sensor_id;sensor_type;location;lat;lon;timestamp;pressure;altitude;pressure_sealevel;temperature;humidity
57594;BME280;43423;46.510;6.686;2023-08-21T00:00:34;96905.44;;;26.55;58.95
57594;BME280;43423;46.510;6.686;2023-08-21T00:03:19;96899.72;;;26.37;60.33
57594;BME280;43423;46.510;6.686;2023-08-21T00:05:45;96908.66;;;26.26;60.42
57594;BME280;43423;46.510;6.686;2023-08-21T00:08:11;96901.59;;;26.42;59.60
57594;BME280;43423;46.510;6.686;2023-08-21T00:10:38;96899.47;;;26.51;59.08
57594;BME280;43423;46.510;6.686;2023-08-21T00:13:05;96900.25;;;26.43;60.27
57594;BME280;43423;46.510;6.686;2023-08-21T00:15:31;96901.44;;;26.40;59.34
57594;BME280;43423;46.510;6.686;2023-08-21T00:17:56;96905.16;;;26.43;58.10
57594;BME280;43423;46.510;6.686;2023-08-21T00:20:22;96905.31;;;26.45;58.08
57594;BME280;43423;46.510;6.686;2023-08-21T00:22:48;96899.03;;;26.29;59.08
57594;BME280;43423;46.510;6.686;2023-08-21T00:25:14;96902.38;;;26.35;58.20
57594;BME280;43423;46.510;6.686;2023-08-21T00:27:39;96908.75;;;26.36;57.81
57594;BME280;43423;46.510;6.686;2023-08-21T00:30:06;96903.00;;;26.26;57.93
57594;BME280;43423;46.510;6.686;2023-08-21T00:32:31;96910.19;;;26.20;57.34
57594;BME280;43423;46.510;6.686;2023-08-21T00:34:57;96903.53;;;26.07;57.64
57594;BME280;43423;46.510;6.686;2023-08-21T00:37:23;96897.56;;;25.96;57.69
57594;BME280;43423;46.510;6.686;2023-08-21T00:39:49;96900.91;;;26.02;57.92
57594;BME280;43423;46.510;6.686;2023-08-21T00:42:14;96905.00;;;26.08;58.04
57594;BME280;43423;46.510;6.686;2023-08-21T00:44:40;96908.22;;;26.05;58.11
57594;BME280;43423;46.510;6.686;2023-08-21T00:47:06;96900.16;;;26.01;58.63
57594;BME280;43423;46.510;6.686;2023-08-21T00:49:32;96900.97;;;25.94;59.40
57594;BME280;43423;46.510;6.686;2023-08-21T00:51:58;96894.41;;;25.92;59.59
57594;BME280;43423;46.510;6.686;2023-08-21T00:54:24;96903.56;;;26.00;59.65
57594;BME280;43423;46.510;6.686;2023-08-21T00:56:50;96903.38;;;25.98;59.11
57594;BME280;43423;46.510;6.686;2023-08-21T00:59:19;96904.31;;;26.00;58.69
57594;BME280;43423;46.510;6.686;2023-08-21T01:01:45;96906.56;;;26.02;58.51
57594;BME280;43423;46.510;6.686;2023-08-21T01:04:11;96900.00;;;25.99;58.72
57594;BME280;43423;46.510;6.686;2023-08-21T01:06:37;96899.41;;;26.01;58.76
57594;BME280;43423;46.510;6.686;2023-08-21T01:09:08;96900.56;;;25.98;58.76
57594;BME280;43423;46.510;6.686;2023-08-21T01:17:09;96896.31;;;25.81;58.60
57594;BME280;43423;46.510;6.686;2023-08-21T01:19:43;96903.28;;;25.80;58.63
57594;BME280;43423;46.510;6.686;2023-08-21T01:22:11;96893.00;;;25.75;58.20
57594;BME280;43423;46.510;6.686;2023-08-21T01:24:37;96905.19;;;25.70;57.88
57594;BME280;43423;46.510;6.686;2023-08-21T01:27:03;96905.94;;;25.71;57.37
57594;BME280;43423;46.510;6.686;2023-08-21T01:29:29;96908.22;;;25.72;57.07
57594;BME280;43423;46.510;6.686;2023-08-21T01:34:46;96909.31;;;25.77;56.79
57594;BME280;43423;46.510;6.686;2023-08-21T01:37:13;96902.94;;;25.76;56.55
57594;BME280;43423;46.510;6.686;2023-08-21T01:39:39;96902.75;;;25.74;56.44
57594;BME280;43423;46.510;6.686;2023-08-21T01:42:05;96908.59;;;25.69;56.73
57594;BME280;43423;46.510;6.686;2023-08-21T01:44:31;96907.31;;;25.62;56.81
57594;BME280;43423;46.510;6.686;2023-08-21T01:46:56;96904.50;;;25.54;57.20
57594;BME280;43423;46.510;6.686;2023-08-21T01:49:22;96903.59;;;25.52;57.29
57594;BME280;43423;46.510;6.686;2023-08-21T01:51:48;96903.78;;;25.54;57.21
57594;BME280;43423;46.510;6.686;2023-08-21T01:54:14;96907.16;;;25.52;56.98
57594;BME280;43423;46.510;6.686;2023-08-21T01:56:39;96908.28;;;25.49;56.81
57594;BME280;43423;46.510;6.686;2023-08-21T01:59:05;96910.53;;;25.51;56.72
57594;BME280;43423;46.510;6.686;2023-08-21T02:01:32;96909.59;;;25.48;56.98
57594;BME280;43423;46.510;6.686;2023-08-21T02:03:58;96914.66;;;25.50;56.52
57594;BME280;43423;46.510;6.686;2023-08-21T02:06:23;96904.91;;;25.43;56.57
57594;BME280;43423;46.510;6.686;2023-08-21T02:08:49;96912.09;;;25.37;56.95
57594;BME280;43423;46.510;6.686;2023-08-21T02:11:16;96914.38;;;25.30;56.92
57594;BME280;43423;46.510;6.686;2023-08-21T02:13:42;96916.78;;;25.34;56.52
57594;BME280;43423;46.510;6.686;2023-08-21T02:16:07;96912.16;;;25.21;57.34
57594;BME280;43423;46.510;6.686;2023-08-21T02:18:33;96915.84;;;25.31;56.27
57594;BME280;43423;46.510;6.686;2023-08-21T02:21:00;96911.19;;;25.26;56.49
57594;BME280;43423;46.510;6.686;2023-08-21T02:23:27;96918.16;;;25.10;56.23
57594;BME280;43423;46.510;6.686;2023-08-21T02:25:54;96900.19;;;25.05;55.90
57594;BME280;43423;46.510;6.686;2023-08-21T02:28:19;96914.03;;;25.11;56.20
57594;BME280;43423;46.510;6.686;2023-08-21T02:30:45;96924.47;;;25.33;54.32
57594;BME280;43423;46.510;6.686;2023-08-21T02:33:11;96925.09;;;25.09;55.85
57594;BME280;43423;46.510;6.686;2023-08-21T02:35:37;96933.72;;;25.11;56.29
57594;BME280;43423;46.510;6.686;2023-08-21T02:38:03;96927.34;;;24.88;56.73
57594;BME280;43423;46.510;6.686;2023-08-21T02:40:28;96927.59;;;24.67;57.52
57594;BME280;43423;46.510;6.686;2023-08-21T02:42:54;96925.88;;;24.71;57.58
57594;BME280;43423;46.510;6.686;2023-08-21T02:45:20;96923.44;;;24.75;57.22
57594;BME280;43423;46.510;6.686;2023-08-21T02:47:45;96920.25;;;24.79;58.07
57594;BME280;43423;46.510;6.686;2023-08-21T02:50:11;96928.31;;;24.60;57.76
57594;BME280;43423;46.510;6.686;2023-08-21T02:52:37;96917.66;;;24.66;57.26
57594;BME280;43423;46.510;6.686;2023-08-21T02:55:04;96923.06;;;24.71;57.67
57594;BME280;43423;46.510;6.686;2023-08-21T02:57:30;96918.19;;;24.64;57.35
57594;BME280;43423;46.510;6.686;2023-08-21T02:59:56;96918.75;;;24.70;58.08
57594;BME280;43423;46.510;6.686;2023-08-21T03:02:22;96921.22;;;24.51;57.58
57594;BME280;43423;46.510;6.686;2023-08-21T03:04:48;96926.44;;;24.62;58.15
57594;BME280;43423;46.510;6.686;2023-08-21T03:07:15;96912.94;;;24.91;55.46
57594;BME280;43423;46.510;6.686;2023-08-21T03:09:41;96913.69;;;25.07;54.00
57594;BME280;43423;46.510;6.686;2023-08-21T03:12:08;96921.19;;;24.97;53.75
57594;BME280;43423;46.510;6.686;2023-08-21T03:14:34;96919.66;;;25.11;51.70
57594;BME280;43423;46.510;6.686;2023-08-21T03:17:00;96923.88;;;25.43;50.08
57594;BME280;43423;46.510;6.686;2023-08-21T03:19:25;96917.00;;;25.28;51.02
57594;BME280;43423;46.510;6.686;2023-08-21T03:21:51;96913.84;;;25.09;52.01
57594;BME280;43423;46.510;6.686;2023-08-21T03:24:17;96922.69;;;24.90;51.17
57594;BME280;43423;46.510;6.686;2023-08-21T03:26:43;96922.13;;;25.07;53.87
57594;BME280;43423;46.510;6.686;2023-08-21T03:29:08;96917.25;;;24.92;55.00
57594;BME280;43423;46.510;6.686;2023-08-21T03:31:34;96923.63;;;24.77;52.40
57594;BME280;43423;46.510;6.686;2023-08-21T03:33:59;96918.56;;;24.68;52.72
57594;BME280;43423;46.510;6.686;2023-08-21T03:36:25;96925.34;;;24.81;53.11
57594;BME280;43423;46.510;6.686;2023-08-21T03:38:58;96926.25;;;24.75;54.54
57594;BME280;43423;46.510;6.686;2023-08-21T03:41:23;96928.31;;;24.67;54.45
57594;BME280;43423;46.510;6.686;2023-08-21T03:43:49;96932.44;;;24.51;54.88
57594;BME280;43423;46.510;6.686;2023-08-21T03:46:15;96934.69;;;24.53;54.61
57594;BME280;43423;46.510;6.686;2023-08-21T03:48:40;96945.53;;;24.41;54.76
57594;BME280;43423;46.510;6.686;2023-08-21T03:51:06;96939.94;;;24.41;55.56
57594;BME280;43423;46.510;6.686;2023-08-21T03:53:32;96941.06;;;24.53;55.90
57594;BME280;43423;46.510;6.686;2023-08-21T03:55:58;96940.72;;;24.49;56.21
57594;BME280;43423;46.510;6.686;2023-08-21T03:58:23;96945.56;;;24.33;56.44
57594;BME280;43423;46.510;6.686;2023-08-21T04:00:51;96948.88;;;24.32;55.91
57594;BME280;43423;46.510;6.686;2023-08-21T04:03:16;96952.63;;;24.27;56.95
57594;BME280;43423;46.510;6.686;2023-08-21T04:05:42;96948.38;;;24.33;57.10
57594;BME280;43423;46.510;6.686;2023-08-21T04:08:08;96950.56;;;24.19;57.42
57594;BME280;43423;46.510;6.686;2023-08-21T04:10:34;96947.38;;;24.23;58.52
57594;BME280;43423;46.510;6.686;2023-08-21T04:12:59;96957.66;;;24.13;58.18
57594;BME280;43423;46.510;6.686;2023-08-21T04:15:25;96958.56;;;24.08;58.60
57594;BME280;43423;46.510;6.686;2023-08-21T04:17:51;96955.59;;;24.13;58.04
57594;BME280;43423;46.510;6.686;2023-08-21T04:20:19;96962.22;;;24.39;54.63
57594;BME280;43423;46.510;6.686;2023-08-21T04:22:44;96963.91;;;24.88;51.02
57594;BME280;43423;46.510;6.686;2023-08-21T04:25:10;96964.66;;;24.88;51.08
57594;BME280;43423;46.510;6.686;2023-08-21T04:27:36;96975.56;;;24.92;50.79
57594;BME280;43423;46.510;6.686;2023-08-21T04:30:03;96971.81;;;24.89;51.33
57594;BME280;43423;46.510;6.686;2023-08-21T04:32:28;96972.19;;;24.86;50.80
57594;BME280;43423;46.510;6.686;2023-08-21T04:34:54;96968.44;;;24.68;52.67
57594;BME280;43423;46.510;6.686;2023-08-21T04:37:20;96969.38;;;24.63;53.58
57594;BME280;43423;46.510;6.686;2023-08-21T04:39:50;96961.66;;;24.48;54.13
57594;BME280;43423;46.510;6.686;2023-08-21T04:42:16;96971.41;;;24.47;54.08
57594;BME280;43423;46.510;6.686;2023-08-21T04:44:41;96979.63;;;24.30;55.06
57594;BME280;43423;46.510;6.686;2023-08-21T04:47:24;96966.84;;;24.21;55.66
57594;BME280;43423;46.510;6.686;2023-08-21T04:49:52;96967.97;;;24.10;56.00
57594;BME280;43423;46.510;6.686;2023-08-21T04:52:18;96982.53;;;24.01;56.29
57594;BME280;43423;46.510;6.686;2023-08-21T04:54:45;96983.81;;;23.92;56.73
57594;BME280;43423;46.510;6.686;2023-08-21T04:57:11;96977.69;;;24.02;55.81
57594;BME280;43423;46.510;6.686;2023-08-21T04:59:37;96986.50;;;24.06;55.89
57594;BME280;43423;46.510;6.686;2023-08-21T05:02:03;96981.44;;;24.04;55.38
57594;BME280;43423;46.510;6.686;2023-08-21T05:04:29;97000.34;;;24.04;55.90
57594;BME280;43423;46.510;6.686;2023-08-21T05:06:54;96998.81;;;23.95;56.25
57594;BME280;43423;46.510;6.686;2023-08-21T05:09:20;96988.16;;;24.01;55.74
57594;BME280;43423;46.510;6.686;2023-08-21T05:11:46;96994.19;;;24.13;55.23
57594;BME280;43423;46.510;6.686;2023-08-21T05:14:12;96994.56;;;24.24;54.91
57594;BME280;43423;46.510;6.686;2023-08-21T05:16:37;96993.16;;;24.39;54.51
57594;BME280;43423;46.510;6.686;2023-08-21T05:19:03;96999.72;;;24.41;54.95
57594;BME280;43423;46.510;6.686;2023-08-21T05:21:29;97004.22;;;24.52;54.53
57594;BME280;43423;46.510;6.686;2023-08-21T05:23:55;96995.03;;;24.44;54.97
57594;BME280;43423;46.510;6.686;2023-08-21T05:26:20;97011.88;;;24.36;56.20
57594;BME280;43423;46.510;6.686;2023-08-21T05:28:46;97006.13;;;24.65;55.19
57594;BME280;43423;46.510;6.686;2023-08-21T05:31:12;97006.28;;;24.52;56.44
57594;BME280;43423;46.510;6.686;2023-08-21T05:33:38;97009.66;;;24.50;56.03
57594;BME280;43423;46.510;6.686;2023-08-21T05:36:04;97017.53;;;24.52;56.94
57594;BME280;43423;46.510;6.686;2023-08-21T05:38:31;97014.16;;;24.53;55.56
57594;BME280;43423;46.510;6.686;2023-08-21T05:40:57;97018.84;;;24.50;55.30
57594;BME280;43423;46.510;6.686;2023-08-21T05:43:24;97017.34;;;24.49;54.89
57594;BME280;43423;46.510;6.686;2023-08-21T05:45:49;97017.34;;;24.42;55.62
57594;BME280;43423;46.510;6.686;2023-08-21T05:48:15;97019.97;;;24.63;55.66
57594;BME280;43423;46.510;6.686;2023-08-21T05:50:42;97021.50;;;24.87;54.19
57594;BME280;43423;46.510;6.686;2023-08-21T05:53:08;97015.50;;;24.98;54.43
57594;BME280;43423;46.510;6.686;2023-08-21T05:55:36;97014.94;;;24.99;55.81
57594;BME280;43423;46.510;6.686;2023-08-21T05:58:03;97022.81;;;25.01;55.69
57594;BME280;43423;46.510;6.686;2023-08-21T06:00:28;97023.22;;;25.05;56.54
57594;BME280;43423;46.510;6.686;2023-08-21T06:02:54;97023.56;;;25.32;54.07
57594;BME280;43423;46.510;6.686;2023-08-21T06:05:20;97025.56;;;25.62;54.38
57594;BME280;43423;46.510;6.686;2023-08-21T06:07:45;97024.34;;;25.96;52.91
57594;BME280;43423;46.510;6.686;2023-08-21T06:10:11;97023.88;;;26.14;51.63
57594;BME280;43423;46.510;6.686;2023-08-21T06:12:41;97027.38;;;26.30;53.26
57594;BME280;43423;46.510;6.686;2023-08-21T06:15:07;97029.50;;;26.87;50.21
57594;BME280;43423;46.510;6.686;2023-08-21T06:17:37;97032.09;;;27.18;48.47
57594;BME280;43423;46.510;6.686;2023-08-21T06:20:04;97031.69;;;27.21;49.78
57594;BME280;43423;46.510;6.686;2023-08-21T06:22:32;97039.13;;;27.51;49.35
57594;BME280;43423;46.510;6.686;2023-08-21T06:24:57;97042.13;;;27.71;48.80
57594;BME280;43423;46.510;6.686;2023-08-21T06:27:23;97047.09;;;28.15;46.43
57594;BME280;43423;46.510;6.686;2023-08-21T06:29:48;97051.13;;;28.65;45.57
57594;BME280;43423;46.510;6.686;2023-08-21T06:32:14;97051.16;;;28.04;48.08
57594;BME280;43423;46.510;6.686;2023-08-21T06:34:40;97052.81;;;28.24;47.45
57594;BME280;43423;46.510;6.686;2023-08-21T06:37:05;97052.59;;;28.13;47.08
57594;BME280;43423;46.510;6.686;2023-08-21T06:39:32;97046.59;;;29.63;44.62
57594;BME280;43423;46.510;6.686;2023-08-21T06:41:58;97053.59;;;29.71;44.38
57594;BME280;43423;46.510;6.686;2023-08-21T06:44:23;97060.66;;;29.34;44.64
57594;BME280;43423;46.510;6.686;2023-08-21T06:46:49;97069.84;;;30.48;43.69
57594;BME280;43423;46.510;6.686;2023-08-21T06:49:14;97060.63;;;29.80;43.80
57594;BME280;43423;46.510;6.686;2023-08-21T06:51:40;97064.38;;;30.21;43.25
57594;BME280;43423;46.510;6.686;2023-08-21T06:54:05;97065.16;;;31.23;41.39
57594;BME280;43423;46.510;6.686;2023-08-21T06:56:32;97069.44;;;32.40;38.25
57594;BME280;43423;46.510;6.686;2023-08-21T06:58:57;97068.31;;;30.57;42.13
57594;BME280;43423;46.510;6.686;2023-08-21T07:01:23;97056.28;;;29.89;43.64
57594;BME280;43423;46.510;6.686;2023-08-21T07:03:48;97068.81;;;29.66;45.37
57594;BME280;43423;46.510;6.686;2023-08-21T07:06:14;97065.84;;;29.18;46.43
57594;BME280;43423;46.510;6.686;2023-08-21T07:08:40;97066.44;;;29.92;45.23
57594;BME280;43423;46.510;6.686;2023-08-21T07:11:06;97061.72;;;28.92;47.84
57594;BME280;43423;46.510;6.686;2023-08-21T07:13:36;97055.94;;;28.73;47.67
57594;BME280;43423;46.510;6.686;2023-08-21T07:16:02;97065.44;;;29.31;46.11
57594;BME280;43423;46.510;6.686;2023-08-21T07:18:30;97063.25;;;30.55;44.35
57594;BME280;43423;46.510;6.686;2023-08-21T07:20:56;97062.19;;;30.70;43.46
57594;BME280;43423;46.510;6.686;2023-08-21T07:23:21;97065.47;;;29.41;47.06
57594;BME280;43423;46.510;6.686;2023-08-21T07:25:47;97068.59;;;29.45;46.28
57594;BME280;43423;46.510;6.686;2023-08-21T07:28:12;97056.31;;;30.08;44.46
57594;BME280;43423;46.510;6.686;2023-08-21T07:30:38;97067.88;;;29.54;46.38
57594;BME280;43423;46.510;6.686;2023-08-21T07:33:04;97059.19;;;29.33;47.65
57594;BME280;43423;46.510;6.686;2023-08-21T07:35:31;97059.84;;;28.50;49.90
57594;BME280;43423;46.510;6.686;2023-08-21T07:37:56;97055.78;;;27.82;50.81
57594;BME280;43423;46.510;6.686;2023-08-21T07:40:22;97065.09;;;29.17;46.95
57594;BME280;43423;46.510;6.686;2023-08-21T07:42:47;97052.28;;;27.74;48.10
57594;BME280;43423;46.510;6.686;2023-08-21T07:45:13;97058.38;;;27.63;50.00
57594;BME280;43423;46.510;6.686;2023-08-21T07:47:39;97061.78;;;27.61;49.79
57594;BME280;43423;46.510;6.686;2023-08-21T07:50:08;97064.00;;;28.05;48.58
57594;BME280;43423;46.510;6.686;2023-08-21T07:52:36;97062.47;;;28.65;49.21
57594;BME280;43423;46.510;6.686;2023-08-21T07:55:02;97073.34;;;28.96;46.56
57594;BME280;43423;46.510;6.686;2023-08-21T07:57:28;97065.41;;;28.14;48.84
57594;BME280;43423;46.510;6.686;2023-08-21T07:59:55;97077.19;;;28.91;47.25
57594;BME280;43423;46.510;6.686;2023-08-21T08:02:21;97066.22;;;28.68;46.90
57594;BME280;43423;46.510;6.686;2023-08-21T08:04:47;97077.78;;;29.26;45.80
57594;BME280;43423;46.510;6.686;2023-08-21T08:07:12;97068.22;;;28.31;47.17
57594;BME280;43423;46.510;6.686;2023-08-21T08:09:38;97068.06;;;27.94;48.65
57594;BME280;43423;46.510;6.686;2023-08-21T08:12:04;97072.03;;;28.70;49.24
57594;BME280;43423;46.510;6.686;2023-08-21T08:14:30;97063.31;;;28.31;49.17
57594;BME280;43423;46.510;6.686;2023-08-21T08:16:56;97070.19;;;29.29;46.54
57594;BME280;43423;46.510;6.686;2023-08-21T08:19:21;97072.50;;;29.03;46.43
57594;BME280;43423;46.510;6.686;2023-08-21T08:21:47;97068.34;;;29.70;45.55
57594;BME280;43423;46.510;6.686;2023-08-21T08:24:13;97075.16;;;29.47;45.99
57594;BME280;43423;46.510;6.686;2023-08-21T08:26:38;97067.16;;;29.63;45.47
57594;BME280;43423;46.510;6.686;2023-08-21T08:29:04;97060.13;;;28.72;47.44
57594;BME280;43423;46.510;6.686;2023-08-21T08:31:30;97061.72;;;28.38;49.57
57594;BME280;43423;46.510;6.686;2023-08-21T08:33:56;97065.53;;;28.33;48.41
57594;BME280;43423;46.510;6.686;2023-08-21T08:36:22;97059.66;;;28.75;44.45
57594;BME280;43423;46.510;6.686;2023-08-21T08:38:47;97050.72;;;28.96;46.58
57594;BME280;43423;46.510;6.686;2023-08-21T08:43:51;97060.75;;;28.80;41.82
57594;BME280;43423;46.510;6.686;2023-08-21T08:46:23;97059.19;;;28.42;45.04
57594;BME280;43423;46.510;6.686;2023-08-21T08:48:51;97045.88;;;28.89;45.44
57594;BME280;43423;46.510;6.686;2023-08-21T08:51:17;97046.75;;;29.09;44.99
57594;BME280;43423;46.510;6.686;2023-08-21T08:53:42;97052.03;;;29.32;45.27
57594;BME280;43423;46.510;6.686;2023-08-21T08:56:09;97049.88;;;29.79;43.70
57594;BME280;43423;46.510;6.686;2023-08-21T08:58:35;97054.78;;;29.68;43.94
57594;BME280;43423;46.510;6.686;2023-08-21T09:01:00;97047.75;;;29.60;45.14
57594;BME280;43423;46.510;6.686;2023-08-21T09:03:28;97049.28;;;29.70;43.66
57594;BME280;43423;46.510;6.686;2023-08-21T09:05:54;97048.72;;;30.11;43.91
57594;BME280;43423;46.510;6.686;2023-08-21T09:08:20;97044.94;;;29.60;44.86
57594;BME280;43423;46.510;6.686;2023-08-21T09:10:46;97039.78;;;29.29;48.04
57594;BME280;43423;46.510;6.686;2023-08-21T09:13:13;97040.13;;;29.43;46.64
57594;BME280;43423;46.510;6.686;2023-08-21T09:15:41;97029.78;;;29.28;47.30
57594;BME280;43423;46.510;6.686;2023-08-21T09:18:10;97030.03;;;29.03;47.54
57594;BME280;43423;46.510;6.686;2023-08-21T09:20:36;97038.66;;;29.61;46.01
57594;BME280;43423;46.510;6.686;2023-08-21T09:23:02;97029.31;;;29.12;46.90
57594;BME280;43423;46.510;6.686;2023-08-21T09:25:34;97028.09;;;29.06;48.32
57594;BME280;43423;46.510;6.686;2023-08-21T09:28:00;97032.63;;;29.38;47.34
57594;BME280;43423;46.510;6.686;2023-08-21T09:30:25;97037.91;;;29.51;47.63
57594;BME280;43423;46.510;6.686;2023-08-21T09:33:01;97032.34;;;29.34;46.08
57594;BME280;43423;46.510;6.686;2023-08-21T09:35:32;97028.38;;;29.56;45.17
57594;BME280;43423;46.510;6.686;2023-08-21T09:37:58;97025.84;;;29.04;45.55
57594;BME280;43423;46.510;6.686;2023-08-21T09:40:24;97030.41;;;29.36;46.06
57594;BME280;43423;46.510;6.686;2023-08-21T09:42:53;97021.75;;;29.34;45.85
57594;BME280;43423;46.510;6.686;2023-08-21T09:45:24;97017.75;;;29.47;45.57
57594;BME280;43423;46.510;6.686;2023-08-21T09:47:51;97017.94;;;29.68;44.67
57594;BME280;43423;46.510;6.686;2023-08-21T09:50:18;97025.00;;;29.21;46.34
57594;BME280;43423;46.510;6.686;2023-08-21T09:52:45;97018.09;;;29.51;44.81
57594;BME280;43423;46.510;6.686;2023-08-21T09:55:14;97020.56;;;29.37;44.92
57594;BME280;43423;46.510;6.686;2023-08-21T09:57:41;97014.94;;;29.47;44.01
57594;BME280;43423;46.510;6.686;2023-08-21T10:00:07;97017.78;;;29.57;43.85
57594;BME280;43423;46.510;6.686;2023-08-21T10:02:51;97018.09;;;29.70;44.12
57594;BME280;43423;46.510;6.686;2023-08-21T10:05:18;97014.66;;;29.53;43.00
57594;BME280;43423;46.510;6.686;2023-08-21T10:07:45;97009.16;;;29.74;42.68
57594;BME280;43423;46.510;6.686;2023-08-21T10:10:13;97011.09;;;29.81;45.30
57594;BME280;43423;46.510;6.686;2023-08-21T10:12:39;97006.00;;;29.89;45.17
57594;BME280;43423;46.510;6.686;2023-08-21T10:15:07;97010.63;;;29.65;45.18
57594;BME280;43423;46.510;6.686;2023-08-21T10:17:37;96999.09;;;29.44;44.62
57594;BME280;43423;46.510;6.686;2023-08-21T10:20:06;97005.88;;;29.58;44.21
57594;BME280;43423;46.510;6.686;2023-08-21T10:22:42;96994.38;;;29.95;44.53
57594;BME280;43423;46.510;6.686;2023-08-21T10:25:24;96999.38;;;29.38;44.24
57594;BME280;43423;46.510;6.686;2023-08-21T10:27:56;96996.94;;;29.71;42.79
57594;BME280;43423;46.510;6.686;2023-08-21T10:30:26;96999.91;;;29.73;41.74
57594;BME280;43423;46.510;6.686;2023-08-21T10:32:54;96997.34;;;29.68;43.01
57594;BME280;43423;46.510;6.686;2023-08-21T10:35:25;96991.09;;;30.08;42.01
57594;BME280;43423;46.510;6.686;2023-08-21T10:38:14;96986.31;;;30.11;41.43
57594;BME280;43423;46.510;6.686;2023-08-21T10:41:04;96988.84;;;29.97;42.90
57594;BME280;43423;46.510;6.686;2023-08-21T10:43:45;96985.63;;;30.41;42.18
57594;BME280;43423;46.510;6.686;2023-08-21T10:46:12;96977.53;;;30.47;42.25
57594;BME280;43423;46.510;6.686;2023-08-21T10:48:39;96979.53;;;30.25;43.22
57594;BME280;43423;46.510;6.686;2023-08-21T10:51:07;96977.50;;;29.78;44.03
57594;BME280;43423;46.510;6.686;2023-08-21T10:53:33;96971.69;;;30.14;43.96
57594;BME280;43423;46.510;6.686;2023-08-21T10:56:04;96977.09;;;30.51;43.52
57594;BME280;43423;46.510;6.686;2023-08-21T10:58:43;96968.47;;;30.39;43.40
57594;BME280;43423;46.510;6.686;2023-08-21T11:01:09;96965.41;;;30.16;43.44
57594;BME280;43423;46.510;6.686;2023-08-21T11:03:38;96962.13;;;30.19;42.04
57594;BME280;43423;46.510;6.686;2023-08-21T11:06:09;96964.63;;;30.35;42.27
57594;BME280;43423;46.510;6.686;2023-08-21T11:08:35;96957.16;;;30.29;41.70
57594;BME280;43423;46.510;6.686;2023-08-21T11:11:03;96963.63;;;30.61;41.55
57594;BME280;43423;46.510;6.686;2023-08-21T11:13:29;96958.88;;;30.54;41.27
57594;BME280;43423;46.510;6.686;2023-08-21T11:16:01;96957.78;;;30.69;41.39
57594;BME280;43423;46.510;6.686;2023-08-21T11:18:33;96956.03;;;30.54;39.80
57594;BME280;43423;46.510;6.686;2023-08-21T11:21:11;96956.53;;;31.03;39.13
57594;BME280;43423;46.510;6.686;2023-08-21T11:23:39;96955.19;;;30.82;40.30
57594;BME280;43423;46.510;6.686;2023-08-21T11:26:05;96951.78;;;31.05;39.59
57594;BME280;43423;46.510;6.686;2023-08-21T11:28:31;96948.94;;;31.05;39.88
57594;BME280;43423;46.510;6.686;2023-08-21T11:30:58;96948.47;;;30.78;40.63
57594;BME280;43423;46.510;6.686;2023-08-21T11:33:25;96947.69;;;31.08;40.60
57594;BME280;43423;46.510;6.686;2023-08-21T11:35:52;96939.84;;;31.28;38.77
57594;BME280;43423;46.510;6.686;2023-08-21T11:38:23;96941.16;;;31.27;38.46
57594;BME280;43423;46.510;6.686;2023-08-21T11:40:59;96946.72;;;31.25;39.49
57594;BME280;43423;46.510;6.686;2023-08-21T11:43:38;96941.38;;;30.67;39.48
57594;BME280;43423;46.510;6.686;2023-08-21T11:46:07;96940.06;;;31.11;38.88
57594;BME280;43423;46.510;6.686;2023-08-21T11:48:33;96936.28;;;30.97;38.19
57594;BME280;43423;46.510;6.686;2023-08-21T11:51:01;96933.16;;;31.14;39.17
57594;BME280;43423;46.510;6.686;2023-08-21T11:56:00;96928.50;;;31.40;37.79
57594;BME280;43423;46.510;6.686;2023-08-21T11:58:29;96928.72;;;31.32;38.27
57594;BME280;43423;46.510;6.686;2023-08-21T12:01:03;96933.88;;;31.46;37.29
57594;BME280;43423;46.510;6.686;2023-08-21T12:03:29;96937.72;;;31.83;36.51
57594;BME280;43423;46.510;6.686;2023-08-21T12:05:55;96925.97;;;31.77;37.21
57594;BME280;43423;46.510;6.686;2023-08-21T12:08:20;96925.06;;;31.75;36.89
57594;BME280;43423;46.510;6.686;2023-08-21T12:10:50;96918.59;;;31.62;37.61
57594;BME280;43423;46.510;6.686;2023-08-21T12:13:17;96916.59;;;31.53;38.01
57594;BME280;43423;46.510;6.686;2023-08-21T12:15:43;96915.03;;;31.62;38.21
57594;BME280;43423;46.510;6.686;2023-08-21T12:18:09;96911.50;;;31.52;39.81
57594;BME280;43423;46.510;6.686;2023-08-21T12:20:34;96911.50;;;31.52;38.04
57594;BME280;43423;46.510;6.686;2023-08-21T12:23:00;96908.22;;;31.67;38.18
57594;BME280;43423;46.510;6.686;2023-08-21T12:25:26;96903.97;;;31.45;38.33
57594;BME280;43423;46.510;6.686;2023-08-21T12:27:51;96899.69;;;31.67;38.23
57594;BME280;43423;46.510;6.686;2023-08-21T12:30:17;96898.13;;;31.76;37.84
57594;BME280;43423;46.510;6.686;2023-08-21T12:32:42;96902.50;;;31.88;37.82
57594;BME280;43423;46.510;6.686;2023-08-21T12:35:08;96898.06;;;31.85;37.65
57594;BME280;43423;46.510;6.686;2023-08-21T12:37:37;96898.19;;;31.87;38.14
57594;BME280;43423;46.510;6.686;2023-08-21T12:40:03;96901.69;;;32.09;37.54
57594;BME280;43423;46.510;6.686;2023-08-21T12:42:29;96895.63;;;32.15;38.38
57594;BME280;43423;46.510;6.686;2023-08-21T12:44:54;96895.50;;;32.13;39.69
57594;BME280;43423;46.510;6.686;2023-08-21T12:47:20;96894.06;;;32.23;38.74
57594;BME280;43423;46.510;6.686;2023-08-21T12:49:46;96887.75;;;32.25;38.11
57594;BME280;43423;46.510;6.686;2023-08-21T12:52:12;96885.22;;;31.84;38.47
57594;BME280;43423;46.510;6.686;2023-08-21T12:54:39;96880.53;;;32.12;37.98
57594;BME280;43423;46.510;6.686;2023-08-21T12:57:05;96883.28;;;32.22;37.73
57594;BME280;43423;46.510;6.686;2023-08-21T12:59:32;96874.66;;;32.32;36.48
57594;BME280;43423;46.510;6.686;2023-08-21T13:02:01;96881.31;;;32.60;37.59
57594;BME280;43423;46.510;6.686;2023-08-21T13:04:28;96875.13;;;32.75;38.74
57594;BME280;43423;46.510;6.686;2023-08-21T13:06:54;96876.00;;;32.66;38.76
57594;BME280;43423;46.510;6.686;2023-08-21T13:09:19;96879.59;;;32.66;38.44
57594;BME280;43423;46.510;6.686;2023-08-21T13:11:45;96873.38;;;32.70;39.54